sensor_id;sensor_type;location;lat;lon;timestamp;P1;durP1;ratioP1;P2;durP2;ratioP2
54983;SDS011;40884;53.562;9.940;2023-04-29T00:00:39;11.37;;;9.43;;
54983;SDS011;40884;53.562;9.940;2023-04-29T00:01:39;11.23;;;9.80;;
54983;SDS011;40884;53.562;9.940;2023-04-29T00:02:40;13.57;;;10.50;;
54983;SDS011;40884;53.562;9.940;2023-04-29T00:03:40;11.50;;;10.30;;
54983;SDS011;40884;53.562;9.940;2023-04-29T00:04:40;12.53;;;10.37;;
54983;SDS011;40884;53.562;9.940;2023-04-29T00:05:40;11.37;;;8.63;;
54983;SDS011;40884;53.562;9.940;2023-04-29T00:06:40;14.03;;;10.23;;
54983;SDS011;40884;53.562;9.940;2023-04-29T00:07:40;8.90;;;7.97;;
54983;SDS011;40884;53.562;9.940;2023-04-29T00:08:40;15.10;;;9.83;;
54983;SDS011;40884;53.562;9.940;2023-04-29T00:09:40;11.03;;;9.93;;
54983;SDS011;40884;53.562;9.940;2023-04-29T00:10:41;11.43;;;9.83;;
54983;SDS011;40884;53.562;9.940;2023-04-29T00:11:41;14.43;;;10.23;;
54983;SDS011;40884;53.562;9.940;2023-04-29T00:12:41;11.83;;;10.07;;
54983;SDS011;40884;53.562;9.940;2023-04-29T00:13:41;12.27;;;9.57;;
54983;SDS011;40884;53.562;9.940;2023-04-29T00:14:41;12.17;;;10.13;;
54983;SDS011;40884;53.562;9.940;2023-04-29T00:15:41;10.97;;;8.77;;
54983;SDS011;40884;53.562;9.940;2023-04-29T00:16:42;13.13;;;10.07;;
54983;SDS011;40884;53.562;9.940;2023-04-29T00:17:42;9.53;;;8.57;;
54983;SDS011;40884;53.562;9.940;2023-04-29T00:18:42;9.63;;;8.40;;
54983;SDS011;40884;53.562;9.940;2023-04-29T00:19:42;10.93;;;8.07;;
54983;SDS011;40884;53.562;9.940;2023-04-29T00:20:42;15.33;;;8.77;;
54983;SDS011;40884;53.562;9.940;2023-04-29T00:21:42;10.47;;;9.37;;
54983;SDS011;40884;53.562;9.940;2023-04-29T00:22:42;12.83;;;9.53;;
54983;SDS011;40884;53.562;9.940;2023-04-29T00:23:43;11.80;;;9.87;;
54983;SDS011;40884;53.562;9.940;2023-04-29T00:24:43;11.57;;;10.37;;
54983;SDS011;40884;53.562;9.940;2023-04-29T00:25:43;12.73;;;10.50;;
54983;SDS011;40884;53.562;9.940;2023-04-29T00:26:43;10.57;;;9.47;;
54983;SDS011;40884;53.562;9.940;2023-04-29T00:27:43;11.60;;;10.40;;
54983;SDS011;40884;53.562;9.940;2023-04-29T00:28:43;11.80;;;10.53;;
54983;SDS011;40884;53.562;9.940;2023-04-29T00:29:43;10.33;;;8.53;;
54983;SDS011;40884;53.562;9.940;2023-04-29T00:30:44;10.07;;;8.93;;
54983;SDS011;40884;53.562;9.940;2023-04-29T00:31:44;11.63;;;9.40;;
54983;SDS011;40884;53.562;9.940;2023-04-29T00:32:44;11.77;;;10.60;;
54983;SDS011;40884;53.562;9.940;2023-04-29T00:33:45;12.03;;;10.37;;
54983;SDS011;40884;53.562;9.940;2023-04-29T00:34:45;12.67;;;10.90;;
54983;SDS011;40884;53.562;9.940;2023-04-29T00:35:45;10.23;;;8.43;;
54983;SDS011;40884;53.562;9.940;2023-04-29T00:36:45;14.10;;;11.37;;
54983;SDS011;40884;53.562;9.940;2023-04-29T00:37:45;10.83;;;9.73;;
54983;SDS011;40884;53.562;9.940;2023-04-29T00:38:45;14.83;;;10.73;;
54983;SDS011;40884;53.562;9.940;2023-04-29T00:39:45;12.27;;;10.93;;
54983;SDS011;40884;53.562;9.940;2023-04-29T00:40:46;10.33;;;8.80;;
54983;SDS011;40884;53.562;9.940;2023-04-29T00:41:46;15.77;;;10.73;;
54983;SDS011;40884;53.562;9.940;2023-04-29T00:42:46;14.60;;;11.13;;
54983;SDS011;40884;53.562;9.940;2023-04-29T00:43:47;15.53;;;10.23;;
54983;SDS011;40884;53.562;9.940;2023-04-29T00:44:47;13.47;;;9.70;;
54983;SDS011;40884;53.562;9.940;2023-04-29T00:45:47;11.97;;;10.40;;
54983;SDS011;40884;53.562;9.940;2023-04-29T00:46:47;13.07;;;11.57;;
54983;SDS011;40884;53.562;9.940;2023-04-29T00:47:47;15.83;;;10.63;;
54983;SDS011;40884;53.562;9.940;2023-04-29T00:48:47;12.27;;;9.30;;
54983;SDS011;40884;53.562;9.940;2023-04-29T00:49:48;12.93;;;11.33;;
54983;SDS011;40884;53.562;9.940;2023-04-29T00:50:48;13.47;;;11.10;;
54983;SDS011;40884;53.562;9.940;2023-04-29T00:51:48;12.20;;;8.77;;
54983;SDS011;40884;53.562;9.940;2023-04-29T00:52:49;11.70;;;10.03;;
54983;SDS011;40884;53.562;9.940;2023-04-29T00:53:49;10.40;;;8.50;;
54983;SDS011;40884;53.562;9.940;2023-04-29T00:54:50;10.87;;;9.07;;
54983;SDS011;40884;53.562;9.940;2023-04-29T00:55:50;12.40;;;10.27;;
54983;SDS011;40884;53.562;9.940;2023-04-29T00:56:51;11.83;;;10.67;;
54983;SDS011;40884;53.562;9.940;2023-04-29T00:57:51;12.53;;;10.87;;
54983;SDS011;40884;53.562;9.940;2023-04-29T00:58:51;11.33;;;9.07;;
54983;SDS011;40884;53.562;9.940;2023-04-29T00:59:52;11.83;;;9.60;;
54983;SDS011;40884;53.562;9.940;2023-04-29T01:00:52;11.83;;;10.10;;
54983;SDS011;40884;53.562;9.940;2023-04-29T01:01:53;14.87;;;10.23;;
54983;SDS011;40884;53.562;9.940;2023-04-29T01:02:53;12.27;;;10.70;;
54983;SDS011;40884;53.562;9.940;2023-04-29T01:03:53;13.17;;;10.07;;
54983;SDS011;40884;53.562;9.940;2023-04-29T01:04:53;11.77;;;10.33;;
54983;SDS011;40884;53.562;9.940;2023-04-29T01:05:57;12.10;;;10.37;;
54983;SDS011;40884;53.562;9.940;2023-04-29T01:07:17;13.27;;;10.90;;
54983;SDS011;40884;53.562;9.940;2023-04-29T01:08:25;13.43;;;11.00;;
54983;SDS011;40884;53.562;9.940;2023-04-29T01:10:53;13.37;;;9.90;;
54983;SDS011;40884;53.562;9.940;2023-04-29T01:12:05;12.20;;;10.67;;
54983;SDS011;40884;53.562;9.940;2023-04-29T01:13:08;11.97;;;10.10;;
54983;SDS011;40884;53.562;9.940;2023-04-29T01:14:10;9.87;;;8.87;;
54983;SDS011;40884;53.562;9.940;2023-04-29T01:15:20;10.73;;;9.63;;
54983;SDS011;40884;53.562;9.940;2023-04-29T01:16:22;15.23;;;10.23;;
54983;SDS011;40884;53.562;9.940;2023-04-29T01:17:24;13.90;;;10.37;;
54983;SDS011;40884;53.562;9.940;2023-04-29T01:18:28;13.60;;;10.07;;
54983;SDS011;40884;53.562;9.940;2023-04-29T01:19:43;11.87;;;9.17;;
54983;SDS011;40884;53.562;9.940;2023-04-29T01:20:44;11.53;;;8.60;;
54983;SDS011;40884;53.562;9.940;2023-04-29T01:21:45;10.93;;;9.20;;
54983;SDS011;40884;53.562;9.940;2023-04-29T01:22:46;11.83;;;9.63;;
54983;SDS011;40884;53.562;9.940;2023-04-29T01:23:46;13.13;;;10.00;;
54983;SDS011;40884;53.562;9.940;2023-04-29T01:24:47;12.97;;;9.67;;
54983;SDS011;40884;53.562;9.940;2023-04-29T01:25:47;10.87;;;8.67;;
54983;SDS011;40884;53.562;9.940;2023-04-29T01:26:56;10.87;;;9.67;;
54983;SDS011;40884;53.562;9.940;2023-04-29T01:28:20;10.27;;;8.23;;
54983;SDS011;40884;53.562;9.940;2023-04-29T01:32:03;11.87;;;9.87;;
54983;SDS011;40884;53.562;9.940;2023-04-29T01:33:22;12.57;;;10.20;;
54983;SDS011;40884;53.562;9.940;2023-04-29T01:34:33;13.70;;;9.63;;
54983;SDS011;40884;53.562;9.940;2023-04-29T01:36:57;12.83;;;9.47;;
54983;SDS011;40884;53.562;9.940;2023-04-29T01:38:21;14.90;;;10.93;;
54983;SDS011;40884;53.562;9.940;2023-04-29T01:39:32;10.93;;;9.27;;
54983;SDS011;40884;53.562;9.940;2023-04-29T01:40:46;13.50;;;10.83;;
54983;SDS011;40884;53.562;9.940;2023-04-29T01:41:56;12.10;;;10.77;;
54983;SDS011;40884;53.562;9.940;2023-04-29T01:43:00;14.80;;;9.10;;
54983;SDS011;40884;53.562;9.940;2023-04-29T01:44:01;13.37;;;11.20;;
54983;SDS011;40884;53.562;9.940;2023-04-29T01:45:04;10.03;;;8.00;;
54983;SDS011;40884;53.562;9.940;2023-04-29T01:46:05;11.23;;;9.23;;
54983;SDS011;40884;53.562;9.940;2023-04-29T01:47:08;11.07;;;9.17;;
54983;SDS011;40884;53.562;9.940;2023-04-29T01:48:15;11.00;;;9.67;;
54983;SDS011;40884;53.562;9.940;2023-04-29T01:49:18;12.33;;;9.03;;
54983;SDS011;40884;53.562;9.940;2023-04-29T01:50:18;14.57;;;10.90;;
54983;SDS011;40884;53.562;9.940;2023-04-29T01:51:18;12.23;;;9.93;;
54983;SDS011;40884;53.562;9.940;2023-04-29T01:52:19;11.93;;;10.07;;
54983;SDS011;40884;53.562;9.940;2023-04-29T01:53:26;14.07;;;10.70;;
54983;SDS011;40884;53.562;9.940;2023-04-29T01:54:26;10.37;;;9.00;;
54983;SDS011;40884;53.562;9.940;2023-04-29T01:55:27;10.93;;;9.60;;
54983;SDS011;40884;53.562;9.940;2023-04-29T01:56:48;11.50;;;9.43;;
54983;SDS011;40884;53.562;9.940;2023-04-29T01:57:55;10.60;;;8.60;;
54983;SDS011;40884;53.562;9.940;2023-04-29T01:59:14;12.17;;;10.57;;
54983;SDS011;40884;53.562;9.940;2023-04-29T02:00:27;12.17;;;10.83;;
54983;SDS011;40884;53.562;9.940;2023-04-29T02:01:28;13.57;;;10.87;;
54983;SDS011;40884;53.562;9.940;2023-04-29T02:02:28;12.87;;;10.90;;
54983;SDS011;40884;53.562;9.940;2023-04-29T02:03:40;13.67;;;11.33;;
54983;SDS011;40884;53.562;9.940;2023-04-29T02:04:43;11.47;;;10.17;;
54983;SDS011;40884;53.562;9.940;2023-04-29T02:05:43;11.83;;;10.63;;
54983;SDS011;40884;53.562;9.940;2023-04-29T02:06:43;10.97;;;9.27;;
54983;SDS011;40884;53.562;9.940;2023-04-29T02:07:43;11.27;;;9.50;;
54983;SDS011;40884;53.562;9.940;2023-04-29T02:08:43;11.77;;;9.97;;
54983;SDS011;40884;53.562;9.940;2023-04-29T02:09:44;12.93;;;11.57;;
54983;SDS011;40884;53.562;9.940;2023-04-29T02:10:54;11.87;;;10.23;;
54983;SDS011;40884;53.562;9.940;2023-04-29T02:12:10;14.57;;;11.13;;
54983;SDS011;40884;53.562;9.940;2023-04-29T02:13:10;10.57;;;8.80;;
54983;SDS011;40884;53.562;9.940;2023-04-29T02:14:10;12.10;;;10.50;;
54983;SDS011;40884;53.562;9.940;2023-04-29T02:15:10;11.70;;;10.43;;
54983;SDS011;40884;53.562;9.940;2023-04-29T02:16:11;10.70;;;9.37;;
54983;SDS011;40884;53.562;9.940;2023-04-29T02:17:16;12.27;;;10.57;;
54983;SDS011;40884;53.562;9.940;2023-04-29T02:18:17;10.77;;;9.37;;
54983;SDS011;40884;53.562;9.940;2023-04-29T02:19:17;11.70;;;10.47;;
54983;SDS011;40884;53.562;9.940;2023-04-29T02:20:17;14.50;;;11.63;;
54983;SDS011;40884;53.562;9.940;2023-04-29T02:21:17;11.80;;;10.50;;
54983;SDS011;40884;53.562;9.940;2023-04-29T02:22:17;13.60;;;12.20;;
54983;SDS011;40884;53.562;9.940;2023-04-29T02:23:18;12.07;;;10.57;;
54983;SDS011;40884;53.562;9.940;2023-04-29T02:24:18;12.50;;;11.07;;
54983;SDS011;40884;53.562;9.940;2023-04-29T02:25:21;12.30;;;10.83;;
54983;SDS011;40884;53.562;9.940;2023-04-29T02:26:21;11.10;;;9.83;;
54983;SDS011;40884;53.562;9.940;2023-04-29T02:27:21;11.37;;;9.40;;
54983;SDS011;40884;53.562;9.940;2023-04-29T02:28:21;14.10;;;11.53;;
54983;SDS011;40884;53.562;9.940;2023-04-29T02:29:21;13.17;;;11.07;;
54983;SDS011;40884;53.562;9.940;2023-04-29T02:30:22;11.00;;;9.80;;
54983;SDS011;40884;53.562;9.940;2023-04-29T02:31:23;11.70;;;10.53;;
54983;SDS011;40884;53.562;9.940;2023-04-29T02:32:23;11.70;;;10.50;;
54983;SDS011;40884;53.562;9.940;2023-04-29T02:33:23;10.23;;;9.07;;
54983;SDS011;40884;53.562;9.940;2023-04-29T02:34:23;12.03;;;10.77;;
54983;SDS011;40884;53.562;9.940;2023-04-29T02:35:23;13.27;;;11.60;;
54983;SDS011;40884;53.562;9.940;2023-04-29T02:36:23;12.30;;;11.10;;
54983;SDS011;40884;53.562;9.940;2023-04-29T02:37:25;16.60;;;12.20;;
54983;SDS011;40884;53.562;9.940;2023-04-29T02:38:25;13.63;;;11.77;;
54983;SDS011;40884;53.562;9.940;2023-04-29T02:39:25;12.37;;;11.07;;
54983;SDS011;40884;53.562;9.940;2023-04-29T02:40:28;14.07;;;12.57;;
54983;SDS011;40884;53.562;9.940;2023-04-29T02:41:29;15.23;;;12.43;;
54983;SDS011;40884;53.562;9.940;2023-04-29T02:42:29;16.73;;;14.50;;
54983;SDS011;40884;53.562;9.940;2023-04-29T02:43:29;17.70;;;12.83;;
54983;SDS011;40884;53.562;9.940;2023-04-29T02:44:29;17.57;;;13.50;;
54983;SDS011;40884;53.562;9.940;2023-04-29T02:45:30;13.77;;;11.70;;
54983;SDS011;40884;53.562;9.940;2023-04-29T02:46:30;14.80;;;13.00;;
54983;SDS011;40884;53.562;9.940;2023-04-29T02:47:30;16.20;;;13.03;;
54983;SDS011;40884;53.562;9.940;2023-04-29T02:48:30;12.97;;;10.80;;
54983;SDS011;40884;53.562;9.940;2023-04-29T02:49:31;17.37;;;13.33;;
54983;SDS011;40884;53.562;9.940;2023-04-29T02:50:31;15.40;;;13.23;;
54983;SDS011;40884;53.562;9.940;2023-04-29T02:51:31;13.40;;;12.07;;
54983;SDS011;40884;53.562;9.940;2023-04-29T02:52:31;16.63;;;13.43;;
54983;SDS011;40884;53.562;9.940;2023-04-29T02:53:31;16.80;;;13.83;;
54983;SDS011;40884;53.562;9.940;2023-04-29T02:54:32;15.40;;;13.70;;
54983;SDS011;40884;53.562;9.940;2023-04-29T02:55:32;13.43;;;12.00;;
54983;SDS011;40884;53.562;9.940;2023-04-29T02:56:38;14.57;;;12.20;;
54983;SDS011;40884;53.562;9.940;2023-04-29T02:57:38;13.63;;;12.23;;
54983;SDS011;40884;53.562;9.940;2023-04-29T02:58:38;14.37;;;12.63;;
54983;SDS011;40884;53.562;9.940;2023-04-29T02:59:38;15.00;;;13.40;;
54983;SDS011;40884;53.562;9.940;2023-04-29T03:00:39;17.43;;;13.70;;
54983;SDS011;40884;53.562;9.940;2023-04-29T03:01:39;15.17;;;13.67;;
54983;SDS011;40884;53.562;9.940;2023-04-29T03:02:40;15.53;;;14.03;;
54983;SDS011;40884;53.562;9.940;2023-04-29T03:03:40;16.37;;;13.97;;
54983;SDS011;40884;53.562;9.940;2023-04-29T03:04:40;16.73;;;13.90;;
54983;SDS011;40884;53.562;9.940;2023-04-29T03:05:40;13.23;;;11.43;;
54983;SDS011;40884;53.562;9.940;2023-04-29T03:06:40;12.23;;;10.80;;
54983;SDS011;40884;53.562;9.940;2023-04-29T03:07:40;15.33;;;12.53;;
54983;SDS011;40884;53.562;9.940;2023-04-29T03:08:40;14.90;;;13.27;;
54983;SDS011;40884;53.562;9.940;2023-04-29T03:09:40;15.10;;;13.53;;
54983;SDS011;40884;53.562;9.940;2023-04-29T03:10:41;14.47;;;12.40;;
54983;SDS011;40884;53.562;9.940;2023-04-29T03:11:41;14.80;;;11.57;;
54983;SDS011;40884;53.562;9.940;2023-04-29T03:12:41;14.63;;;12.13;;
54983;SDS011;40884;53.562;9.940;2023-04-29T03:13:41;14.80;;;13.00;;
54983;SDS011;40884;53.562;9.940;2023-04-29T03:14:41;12.93;;;11.60;;
54983;SDS011;40884;53.562;9.940;2023-04-29T03:15:41;12.60;;;11.17;;
54983;SDS011;40884;53.562;9.940;2023-04-29T03:16:41;13.27;;;11.87;;
54983;SDS011;40884;53.562;9.940;2023-04-29T03:17:42;12.60;;;10.03;;
54983;SDS011;40884;53.562;9.940;2023-04-29T03:18:42;12.83;;;10.60;;
54983;SDS011;40884;53.562;9.940;2023-04-29T03:19:42;12.73;;;10.50;;
54983;SDS011;40884;53.562;9.940;2023-04-29T03:20:42;14.30;;;11.03;;
54983;SDS011;40884;53.562;9.940;2023-04-29T03:21:43;14.90;;;11.00;;
54983;SDS011;40884;53.562;9.940;2023-04-29T03:22:43;14.07;;;11.73;;
54983;SDS011;40884;53.562;9.940;2023-04-29T03:23:43;14.13;;;10.23;;
54983;SDS011;40884;53.562;9.940;2023-04-29T03:24:47;12.43;;;9.43;;
54983;SDS011;40884;53.562;9.940;2023-04-29T03:25:47;11.40;;;9.93;;
54983;SDS011;40884;53.562;9.940;2023-04-29T03:26:47;14.23;;;11.17;;
54983;SDS011;40884;53.562;9.940;2023-04-29T03:27:47;13.37;;;11.87;;
54983;SDS011;40884;53.562;9.940;2023-04-29T03:28:47;14.17;;;12.30;;
54983;SDS011;40884;53.562;9.940;2023-04-29T03:29:47;12.80;;;10.97;;
54983;SDS011;40884;53.562;9.940;2023-04-29T03:30:47;11.87;;;10.67;;
54983;SDS011;40884;53.562;9.940;2023-04-29T03:31:48;13.03;;;11.73;;
54983;SDS011;40884;53.562;9.940;2023-04-29T03:32:48;12.33;;;10.97;;
54983;SDS011;40884;53.562;9.940;2023-04-29T03:33:48;15.63;;;12.37;;
54983;SDS011;40884;53.562;9.940;2023-04-29T03:34:48;13.20;;;11.90;;
54983;SDS011;40884;53.562;9.940;2023-04-29T03:36:00;12.77;;;10.97;;
54983;SDS011;40884;53.562;9.940;2023-04-29T03:37:13;12.83;;;10.50;;
54983;SDS011;40884;53.562;9.940;2023-04-29T03:38:16;12.30;;;10.53;;
54983;SDS011;40884;53.562;9.940;2023-04-29T03:39:17;12.90;;;11.60;;
54983;SDS011;40884;53.562;9.940;2023-04-29T03:40:17;11.63;;;10.43;;
54983;SDS011;40884;53.562;9.940;2023-04-29T03:41:18;12.73;;;10.57;;
54983;SDS011;40884;53.562;9.940;2023-04-29T03:42:18;13.53;;;11.63;;
54983;SDS011;40884;53.562;9.940;2023-04-29T03:43:18;13.93;;;11.83;;
54983;SDS011;40884;53.562;9.940;2023-04-29T03:44:18;14.40;;;12.57;;
54983;SDS011;40884;53.562;9.940;2023-04-29T03:45:19;13.80;;;12.27;;
54983;SDS011;40884;53.562;9.940;2023-04-29T03:46:19;13.77;;;11.27;;
54983;SDS011;40884;53.562;9.940;2023-04-29T03:47:19;12.37;;;10.87;;
54983;SDS011;40884;53.562;9.940;2023-04-29T03:48:19;13.13;;;11.77;;
54983;SDS011;40884;53.562;9.940;2023-04-29T03:49:20;11.53;;;10.37;;
54983;SDS011;40884;53.562;9.940;2023-04-29T03:50:20;13.07;;;11.50;;
54983;SDS011;40884;53.562;9.940;2023-04-29T03:51:21;12.27;;;10.40;;
54983;SDS011;40884;53.562;9.940;2023-04-29T03:52:23;12.77;;;11.57;;
54983;SDS011;40884;53.562;9.940;2023-04-29T03:53:26;14.07;;;12.60;;
54983;SDS011;40884;53.562;9.940;2023-04-29T03:54:26;15.23;;;12.53;;
54983;SDS011;40884;53.562;9.940;2023-04-29T03:55:27;13.90;;;12.50;;
54983;SDS011;40884;53.562;9.940;2023-04-29T03:56:27;15.03;;;13.47;;
54983;SDS011;40884;53.562;9.940;2023-04-29T03:57:27;13.57;;;10.67;;
54983;SDS011;40884;53.562;9.940;2023-04-29T03:58:28;14.87;;;12.97;;
54983;SDS011;40884;53.562;9.940;2023-04-29T03:59:29;16.80;;;12.00;;
54983;SDS011;40884;53.562;9.940;2023-04-29T04:00:29;13.87;;;11.37;;
54983;SDS011;40884;53.562;9.940;2023-04-29T04:01:30;13.67;;;12.00;;
54983;SDS011;40884;53.562;9.940;2023-04-29T04:02:30;11.53;;;9.83;;
54983;SDS011;40884;53.562;9.940;2023-04-29T04:03:30;13.33;;;11.87;;
54983;SDS011;40884;53.562;9.940;2023-04-29T04:04:31;16.73;;;12.73;;
54983;SDS011;40884;53.562;9.940;2023-04-29T04:05:32;14.70;;;13.00;;
54983;SDS011;40884;53.562;9.940;2023-04-29T04:06:38;16.67;;;13.60;;
54983;SDS011;40884;53.562;9.940;2023-04-29T04:07:38;14.63;;;12.13;;
54983;SDS011;40884;53.562;9.940;2023-04-29T04:08:57;14.07;;;12.57;;
54983;SDS011;40884;53.562;9.940;2023-04-29T04:10:01;15.00;;;12.63;;
54983;SDS011;40884;53.562;9.940;2023-04-29T04:11:01;15.83;;;11.60;;
54983;SDS011;40884;53.562;9.940;2023-04-29T04:12:16;13.90;;;12.40;;
54983;SDS011;40884;53.562;9.940;2023-04-29T04:13:16;15.30;;;12.73;;
54983;SDS011;40884;53.562;9.940;2023-04-29T04:14:16;13.60;;;12.20;;
54983;SDS011;40884;53.562;9.940;2023-04-29T04:15:16;15.10;;;12.10;;
54983;SDS011;40884;53.562;9.940;2023-04-29T04:16:17;14.90;;;12.93;;
54983;SDS011;40884;53.562;9.940;2023-04-29T04:17:17;16.57;;;13.30;;
54983;SDS011;40884;53.562;9.940;2023-04-29T04:18:17;13.43;;;12.03;;
54983;SDS011;40884;53.562;9.940;2023-04-29T04:19:18;14.07;;;12.30;;
54983;SDS011;40884;53.562;9.940;2023-04-29T04:20:19;13.60;;;11.97;;
54983;SDS011;40884;53.562;9.940;2023-04-29T04:21:21;15.00;;;12.37;;
54983;SDS011;40884;53.562;9.940;2023-04-29T04:22:32;14.00;;;12.17;;
54983;SDS011;40884;53.562;9.940;2023-04-29T04:23:55;12.67;;;11.03;;
54983;SDS011;40884;53.562;9.940;2023-04-29T04:24:57;13.87;;;11.37;;
54983;SDS011;40884;53.562;9.940;2023-04-29T04:25:57;13.37;;;12.00;;
54983;SDS011;40884;53.562;9.940;2023-04-29T04:27:17;16.03;;;10.90;;
54983;SDS011;40884;53.562;9.940;2023-04-29T04:28:20;12.17;;;10.90;;
54983;SDS011;40884;53.562;9.940;2023-04-29T04:29:30;13.13;;;11.27;;
54983;SDS011;40884;53.562;9.940;2023-04-29T04:30:38;15.13;;;12.23;;
54983;SDS011;40884;53.562;9.940;2023-04-29T04:31:38;12.47;;;11.17;;
54983;SDS011;40884;53.562;9.940;2023-04-29T04:32:38;13.60;;;11.97;;
54983;SDS011;40884;53.562;9.940;2023-04-29T04:33:39;15.43;;;12.37;;
54983;SDS011;40884;53.562;9.940;2023-04-29T04:34:40;14.40;;;12.00;;
54983;SDS011;40884;53.562;9.940;2023-04-29T04:35:43;13.07;;;11.03;;
54983;SDS011;40884;53.562;9.940;2023-04-29T04:36:43;13.23;;;11.87;;
54983;SDS011;40884;53.562;9.940;2023-04-29T04:37:43;12.60;;;11.30;;
54983;SDS011;40884;53.562;9.940;2023-04-29T04:38:43;15.10;;;11.50;;
54983;SDS011;40884;53.562;9.940;2023-04-29T04:39:45;13.17;;;11.83;;
54983;SDS011;40884;53.562;9.940;2023-04-29T04:40:48;14.47;;;12.43;;
54983;SDS011;40884;53.562;9.940;2023-04-29T04:42:09;13.03;;;11.73;;
54983;SDS011;40884;53.562;9.940;2023-04-29T04:43:09;13.50;;;11.33;;
54983;SDS011;40884;53.562;9.940;2023-04-29T04:44:13;10.37;;;9.27;;
54983;SDS011;40884;53.562;9.940;2023-04-29T04:45:22;11.97;;;10.70;;
54983;SDS011;40884;53.562;9.940;2023-04-29T04:46:24;13.63;;;10.87;;
54983;SDS011;40884;53.562;9.940;2023-04-29T04:47:35;10.90;;;9.73;;
54983;SDS011;40884;53.562;9.940;2023-04-29T04:48:40;12.97;;;10.13;;
54983;SDS011;40884;53.562;9.940;2023-04-29T04:49:42;12.60;;;11.30;;
54983;SDS011;40884;53.562;9.940;2023-04-29T04:50:42;11.43;;;10.23;;
54983;SDS011;40884;53.562;9.940;2023-04-29T04:51:43;12.13;;;9.67;;
54983;SDS011;40884;53.562;9.940;2023-04-29T04:52:43;12.17;;;9.30;;
54983;SDS011;40884;53.562;9.940;2023-04-29T04:54:02;12.27;;;10.70;;
54983;SDS011;40884;53.562;9.940;2023-04-29T04:55:05;11.80;;;10.53;;
54983;SDS011;40884;53.562;9.940;2023-04-29T04:56:09;12.83;;;10.20;;
54983;SDS011;40884;53.562;9.940;2023-04-29T04:57:10;11.47;;;10.23;;
54983;SDS011;40884;53.562;9.940;2023-04-29T04:58:10;13.30;;;11.47;;
54983;SDS011;40884;53.562;9.940;2023-04-29T04:59:11;10.13;;;9.13;;
54983;SDS011;40884;53.562;9.940;2023-04-29T05:00:14;13.03;;;10.30;;
54983;SDS011;40884;53.562;9.940;2023-04-29T05:01:14;13.10;;;10.37;;
54983;SDS011;40884;53.562;9.940;2023-04-29T05:02:14;12.80;;;10.27;;
54983;SDS011;40884;53.562;9.940;2023-04-29T05:03:15;11.83;;;10.17;;
54983;SDS011;40884;53.562;9.940;2023-04-29T05:04:15;14.60;;;10.87;;
54983;SDS011;40884;53.562;9.940;2023-04-29T05:05:15;12.63;;;10.33;;
54983;SDS011;40884;53.562;9.940;2023-04-29T05:06:16;12.10;;;10.50;;
54983;SDS011;40884;53.562;9.940;2023-04-29T05:07:19;13.50;;;10.97;;
54983;SDS011;40884;53.562;9.940;2023-04-29T05:08:34;12.07;;;10.37;;
54983;SDS011;40884;53.562;9.940;2023-04-29T05:09:36;12.00;;;9.87;;
54983;SDS011;40884;53.562;9.940;2023-04-29T05:10:37;11.90;;;8.47;;
54983;SDS011;40884;53.562;9.940;2023-04-29T05:11:38;12.63;;;9.30;;
54983;SDS011;40884;53.562;9.940;2023-04-29T05:12:45;12.53;;;9.67;;
54983;SDS011;40884;53.562;9.940;2023-04-29T05:13:45;12.10;;;10.30;;
54983;SDS011;40884;53.562;9.940;2023-04-29T05:14:45;12.17;;;10.27;;
54983;SDS011;40884;53.562;9.940;2023-04-29T05:15:46;12.93;;;10.83;;
54983;SDS011;40884;53.562;9.940;2023-04-29T05:16:51;14.47;;;10.10;;
54983;SDS011;40884;53.562;9.940;2023-04-29T05:17:51;13.50;;;10.80;;
54983;SDS011;40884;53.562;9.940;2023-04-29T05:18:51;14.60;;;11.00;;
54983;SDS011;40884;53.562;9.940;2023-04-29T05:19:51;11.53;;;10.33;;
54983;SDS011;40884;53.562;9.940;2023-04-29T05:20:52;14.23;;;10.60;;
54983;SDS011;40884;53.562;9.940;2023-04-29T05:21:52;11.67;;;10.10;;
54983;SDS011;40884;53.562;9.940;2023-04-29T05:22:52;13.40;;;10.20;;
54983;SDS011;40884;53.562;9.940;2023-04-29T05:23:53;11.80;;;8.90;;
54983;SDS011;40884;53.562;9.940;2023-04-29T05:24:53;12.40;;;10.27;;
54983;SDS011;40884;53.562;9.940;2023-04-29T05:25:56;12.87;;;10.67;;
54983;SDS011;40884;53.562;9.940;2023-04-29T05:26:56;10.73;;;9.60;;
54983;SDS011;40884;53.562;9.940;2023-04-29T05:27:56;9.93;;;8.93;;
54983;SDS011;40884;53.562;9.940;2023-04-29T05:28:58;10.40;;;9.30;;
54983;SDS011;40884;53.562;9.940;2023-04-29T05:29:58;12.33;;;10.07;;
54983;SDS011;40884;53.562;9.940;2023-04-29T05:30:58;11.10;;;9.77;;
54983;SDS011;40884;53.562;9.940;2023-04-29T05:31:58;12.43;;;10.77;;
54983;SDS011;40884;53.562;9.940;2023-04-29T05:32:59;12.87;;;10.13;;
54983;SDS011;40884;53.562;9.940;2023-04-29T05:33:59;13.13;;;9.97;;
54983;SDS011;40884;53.562;9.940;2023-04-29T05:34:59;12.10;;;9.17;;
54983;SDS011;40884;53.562;9.940;2023-04-29T05:35:59;10.93;;;9.83;;
54983;SDS011;40884;53.562;9.940;2023-04-29T05:36:59;9.23;;;8.33;;
54983;SDS011;40884;53.562;9.940;2023-04-29T05:38:00;11.63;;;9.10;;
54983;SDS011;40884;53.562;9.940;2023-04-29T05:39:09;10.70;;;9.53;;
54983;SDS011;40884;53.562;9.940;2023-04-29T05:40:09;11.40;;;10.30;;
54983;SDS011;40884;53.562;9.940;2023-04-29T05:41:09;13.80;;;8.80;;
54983;SDS011;40884;53.562;9.940;2023-04-29T05:42:09;11.53;;;9.73;;
54983;SDS011;40884;53.562;9.940;2023-04-29T05:43:14;10.40;;;9.10;;
54983;SDS011;40884;53.562;9.940;2023-04-29T05:44:14;12.73;;;8.60;;
54983;SDS011;40884;53.562;9.940;2023-04-29T05:45:14;12.07;;;9.13;;
54983;SDS011;40884;53.562;9.940;2023-04-29T05:46:14;9.87;;;8.87;;
54983;SDS011;40884;53.562;9.940;2023-04-29T05:47:15;10.63;;;9.20;;
54983;SDS011;40884;53.562;9.940;2023-04-29T05:48:16;12.67;;;8.07;;
54983;SDS011;40884;53.562;9.940;2023-04-29T05:49:17;10.90;;;8.73;;
54983;SDS011;40884;53.562;9.940;2023-04-29T05:50:17;11.17;;;8.40;;
54983;SDS011;40884;53.562;9.940;2023-04-29T05:51:18;10.60;;;8.23;;
54983;SDS011;40884;53.562;9.940;2023-04-29T05:52:18;10.60;;;7.67;;
54983;SDS011;40884;53.562;9.940;2023-04-29T05:53:21;9.67;;;8.37;;
54983;SDS011;40884;53.562;9.940;2023-04-29T05:54:22;9.90;;;7.33;;
54983;SDS011;40884;53.562;9.940;2023-04-29T05:55:23;11.27;;;7.93;;
54983;SDS011;40884;53.562;9.940;2023-04-29T05:56:23;10.43;;;7.40;;
54983;SDS011;40884;53.562;9.940;2023-04-29T05:57:23;8.60;;;7.63;;
54983;SDS011;40884;53.562;9.940;2023-04-29T05:58:23;8.03;;;7.07;;
54983;SDS011;40884;53.562;9.940;2023-04-29T05:59:24;10.00;;;7.37;;
54983;SDS011;40884;53.562;9.940;2023-04-29T06:00:26;10.33;;;7.70;;
54983;SDS011;40884;53.562;9.940;2023-04-29T06:01:33;10.23;;;8.47;;
54983;SDS011;40884;53.562;9.940;2023-04-29T06:02:33;8.10;;;7.30;;
54983;SDS011;40884;53.562;9.940;2023-04-29T06:03:33;10.53;;;7.03;;
54983;SDS011;40884;53.562;9.940;2023-04-29T06:04:58;8.57;;;7.67;;
54983;SDS011;40884;53.562;9.940;2023-04-29T06:06:04;11.57;;;7.17;;
54983;SDS011;40884;53.562;9.940;2023-04-29T06:07:12;9.37;;;6.77;;
54983;SDS011;40884;53.562;9.940;2023-04-29T06:08:24;11.57;;;7.50;;
54983;SDS011;40884;53.562;9.940;2023-04-29T06:09:27;9.40;;;7.57;;
54983;SDS011;40884;53.562;9.940;2023-04-29T06:10:28;9.07;;;7.13;;
54983;SDS011;40884;53.562;9.940;2023-04-29T06:11:28;8.87;;;7.53;;